sensor_id;sensor_type;location;lat;lon;timestamp;P1;P4;P2;P0;N10;N4;N25;N1;N05;TS
62702;SPS30;66022;50.448;18.122;2023-03-05T00:02:34;12.18;;11.27;;;;;;;
62702;SPS30;66022;50.448;18.122;2023-03-05T00:06:48;18.14;;15.24;;;;;;;
62702;SPS30;66022;50.448;18.122;2023-03-05T00:11:03;18.14;;15.24;;;;;;;
62702;SPS30;66022;50.448;18.122;2023-03-05T00:15:16;18.14;;15.24;;;;;;;
62702;SPS30;66022;50.448;18.122;2023-03-05T00:19:30;15.53;;14.18;;;;;;;
62702;SPS30;66022;50.448;18.122;2023-03-05T00:23:44;15.53;;14.18;;;;;;;
62702;SPS30;66022;50.448;18.122;2023-03-05T00:27:58;15.97;;14.12;;;;;;;
62702;SPS30;66022;50.448;18.122;2023-03-05T00:32:12;15.97;;14.12;;;;;;;
62702;SPS30;66022;50.448;18.122;2023-03-05T00:36:26;15.97;;14.12;;;;;;;
62702;SPS30;66022;50.448;18.122;2023-03-05T00:40:40;10.30;;9.94;;;;;;;
62702;SPS30;66022;50.448;18.122;2023-03-05T00:44:54;10.30;;9.94;;;;;;;
62702;SPS30;66022;50.448;18.122;2023-03-05T00:49:08;10.77;;10.32;;;;;;;
62702;SPS30;66022;50.448;18.122;2023-03-05T00:53:22;10.77;;10.32;;;;;;;
62702;SPS30;66022;50.448;18.122;2023-03-05T00:57:36;14.27;;12.44;;;;;;;
62702;SPS30;66022;50.448;18.122;2023-03-05T01:01:50;14.27;;12.44;;;;;;;
62702;SPS30;66022;50.448;18.122;2023-03-05T01:06:06;14.27;;12.44;;;;;;;
62702;SPS30;66022;50.448;18.122;2023-03-05T01:10:19;9.85;;9.09;;;;;;;
62702;SPS30;66022;50.448;18.122;2023-03-05T01:14:32;9.85;;9.09;;;;;;;
62702;SPS30;66022;50.448;18.122;2023-03-05T01:18:46;10.08;;9.54;;;;;;;
62702;SPS30;66022;50.448;18.122;2023-03-05T01:23:00;10.08;;9.54;;;;;;;
62702;SPS30;66022;50.448;18.122;2023-03-05T01:27:14;10.22;;9.55;;;;;;;
62702;SPS30;66022;50.448;18.122;2023-03-05T01:31:28;10.22;;9.55;;;;;;;
62702;SPS30;66022;50.448;18.122;2023-03-05T01:35:44;10.22;;9.55;;;;;;;
62702;SPS30;66022;50.448;18.122;2023-03-05T01:39:56;11.82;;10.12;;;;;;;
62702;SPS30;66022;50.448;18.122;2023-03-05T01:44:20;11.82;;10.12;;;;;;;
62702;SPS30;66022;50.448;18.122;2023-03-05T01:48:24;8.10;;7.77;;;;;;;
62702;SPS30;66022;50.448;18.122;2023-03-05T01:52:39;8.10;;7.77;;;;;;;
62702;SPS30;66022;50.448;18.122;2023-03-05T01:56:52;7.66;;7.53;;;;;;;
62702;SPS30;66022;50.448;18.122;2023-03-05T02:01:06;7.66;;7.53;;;;;;;
62702;SPS30;66022;50.448;18.122;2023-03-05T02:09:36;7.66;;7.46;;;;;;;
62702;SPS30;66022;50.448;18.122;2023-03-05T02:13:48;7.66;;7.46;;;;;;;
62702;SPS30;66022;50.448;18.122;2023-03-05T02:18:02;8.56;;7.91;;;;;;;
62702;SPS30;66022;50.448;18.122;2023-03-05T02:22:17;8.56;;7.91;;;;;;;
62702;SPS30;66022;50.448;18.122;2023-03-05T02:26:30;10.12;;10.12;;;;;;;
62702;SPS30;66022;50.448;18.122;2023-03-05T02:30:44;10.12;;10.12;;;;;;;
62702;SPS30;66022;50.448;18.122;2023-03-05T02:34:58;10.12;;10.12;;;;;;;
62702;SPS30;66022;50.448;18.122;2023-03-05T02:39:12;13.33;;13.21;;;;;;;
62702;SPS30;66022;50.448;18.122;2023-03-05T02:43:26;13.33;;13.21;;;;;;;
62702;SPS30;66022;50.448;18.122;2023-03-05T02:47:40;9.36;;8.26;;;;;;;
62702;SPS30;66022;50.448;18.122;2023-03-05T02:51:54;9.36;;8.26;;;;;;;
62702;SPS30;66022;50.448;18.122;2023-03-05T02:56:08;9.36;;8.26;;;;;;;
62702;SPS30;66022;50.448;18.122;2023-03-05T03:00:22;10.65;;9.65;;;;;;;
62702;SPS30;66022;50.448;18.122;2023-03-05T03:04:36;10.65;;9.65;;;;;;;
62702;SPS30;66022;50.448;18.122;2023-03-05T03:08:50;9.39;;7.90;;;;;;;
62702;SPS30;66022;50.448;18.122;2023-03-05T03:13:04;9.39;;7.90;;;;;;;
62702;SPS30;66022;50.448;18.122;2023-03-05T03:17:18;20.39;;17.30;;;;;;;
62702;SPS30;66022;50.448;18.122;2023-03-05T03:21:32;20.39;;17.30;;;;;;;
62702;SPS30;66022;50.448;18.122;2023-03-05T03:25:46;20.39;;17.30;;;;;;;
62702;SPS30;66022;50.448;18.122;2023-03-05T03:30:00;6.60;;6.40;;;;;;;
62702;SPS30;66022;50.448;18.122;2023-03-05T03:34:15;6.60;;6.40;;;;;;;
62702;SPS30;66022;50.448;18.122;2023-03-05T03:38:28;6.98;;6.61;;;;;;;
62702;SPS30;66022;50.448;18.122;2023-03-05T03:42:42;6.98;;6.61;;;;;;;
62702;SPS30;66022;50.448;18.122;2023-03-05T03:46:56;6.15;;5.77;;;;;;;
62702;SPS30;66022;50.448;18.122;2023-03-05T03:51:10;6.15;;5.77;;;;;;;
62702;SPS30;66022;50.448;18.122;2023-03-05T03:55:29;6.15;;5.77;;;;;;;
62702;SPS30;66022;50.448;18.122;2023-03-05T03:59:44;5.42;;5.03;;;;;;;
62702;SPS30;66022;50.448;18.122;2023-03-05T04:03:55;5.42;;5.03;;;;;;;
62702;SPS30;66022;50.448;18.122;2023-03-05T04:08:06;4.75;;4.34;;;;;;;
62702;SPS30;66022;50.448;18.122;2023-03-05T04:12:21;4.75;;4.34;;;;;;;
62702;SPS30;66022;50.448;18.122;2023-03-05T04:16:34;8.88;;8.46;;;;;;;
62702;SPS30;66022;50.448;18.122;2023-03-05T04:20:48;8.88;;8.46;;;;;;;
62702;SPS30;66022;50.448;18.122;2023-03-05T04:25:03;8.88;;8.46;;;;;;;
62702;SPS30;66022;50.448;18.122;2023-03-05T04:29:17;91.34;;67.62;;;;;;;
62702;SPS30;66022;50.448;18.122;2023-03-05T04:33:30;91.34;;67.62;;;;;;;
62702;SPS30;66022;50.448;18.122;2023-03-05T04:37:44;9.20;;8.76;;;;;;;
62702;SPS30;66022;50.448;18.122;2023-03-05T04:41:58;9.20;;8.76;;;;;;;
62702;SPS30;66022;50.448;18.122;2023-03-05T04:46:12;9.20;;8.76;;;;;;;
62702;SPS30;66022;50.448;18.122;2023-03-05T04:50:27;6.38;;6.38;;;;;;;
62702;SPS30;66022;50.448;18.122;2023-03-05T04:54:40;6.38;;6.38;;;;;;;
62702;SPS30;66022;50.448;18.122;2023-03-05T04:58:54;6.03;;6.03;;;;;;;
62702;SPS30;66022;50.448;18.122;2023-03-05T05:03:08;6.03;;6.03;;;;;;;
62702;SPS30;66022;50.448;18.122;2023-03-05T05:07:22;8.67;;8.33;;;;;;;
62702;SPS30;66022;50.448;18.122;2023-03-05T05:11:36;8.67;;8.33;;;;;;;
62702;SPS30;66022;50.448;18.122;2023-03-05T05:15:51;8.67;;8.33;;;;;;;
62702;SPS30;66022;50.448;18.122;2023-03-05T05:20:05;13.36;;13.36;;;;;;;
62702;SPS30;66022;50.448;18.122;2023-03-05T05:24:18;13.36;;13.36;;;;;;;
62702;SPS30;66022;50.448;18.122;2023-03-05T05:28:33;11.42;;10.32;;;;;;;
62702;SPS30;66022;50.448;18.122;2023-03-05T05:32:46;11.42;;10.32;;;;;;;
62702;SPS30;66022;50.448;18.122;2023-03-05T05:37:01;7.12;;6.55;;;;;;;
62702;SPS30;66022;50.448;18.122;2023-03-05T05:41:15;7.12;;6.55;;;;;;;
62702;SPS30;66022;50.448;18.122;2023-03-05T05:45:29;7.12;;6.55;;;;;;;
62702;SPS30;66022;50.448;18.122;2023-03-05T05:49:43;17.21;;15.88;;;;;;;
62702;SPS30;66022;50.448;18.122;2023-03-05T05:53:57;17.21;;15.88;;;;;;;
62702;SPS30;66022;50.448;18.122;2023-03-05T05:58:11;35.18;;31.80;;;;;;;
62702;SPS30;66022;50.448;18.122;2023-03-05T06:02:25;35.18;;31.80;;;;;;;
62702;SPS30;66022;50.448;18.122;2023-03-05T06:06:39;24.74;;22.95;;;;;;;
62702;SPS30;66022;50.448;18.122;2023-03-05T06:10:53;24.74;;22.95;;;;;;;
62702;SPS30;66022;50.448;18.122;2023-03-05T06:15:07;24.74;;22.95;;;;;;;
62702;SPS30;66022;50.448;18.122;2023-03-05T06:19:20;16.89;;15.63;;;;;;;
62702;SPS30;66022;50.448;18.122;2023-03-05T06:23:35;16.89;;15.63;;;;;;;
62702;SPS30;66022;50.448;18.122;2023-03-05T06:27:48;20.72;;19.68;;;;;;;
62702;SPS30;66022;50.448;18.122;2023-03-05T06:32:03;20.72;;19.68;;;;;;;
62702;SPS30;66022;50.448;18.122;2023-03-05T06:36:18;20.72;;19.68;;;;;;;
62702;SPS30;66022;50.448;18.122;2023-03-05T06:40:31;12.00;;11.90;;;;;;;
62702;SPS30;66022;50.448;18.122;2023-03-05T06:44:45;12.00;;11.90;;;;;;;
62702;SPS30;66022;50.448;18.122;2023-03-05T06:48:59;16.88;;15.91;;;;;;;
62702;SPS30;66022;50.448;18.122;2023-03-05T06:53:13;16.88;;15.91;;;;;;;
62702;SPS30;66022;50.448;18.122;2023-03-05T06:57:27;44.39;;34.71;;;;;;;
62702;SPS30;66022;50.448;18.122;2023-03-05T07:01:41;44.39;;34.71;;;;;;;
62702;SPS30;66022;50.448;18.122;2023-03-05T07:05:55;44.39;;34.71;;;;;;;
62702;SPS30;66022;50.448;18.122;2023-03-05T07:10:09;19.60;;18.69;;;;;;;
62702;SPS30;66022;50.448;18.122;2023-03-05T07:14:23;19.60;;18.69;;;;;;;
62702;SPS30;66022;50.448;18.122;2023-03-05T07:18:37;20.98;;20.40;;;;;;;
62702;SPS30;66022;50.448;18.122;2023-03-05T07:22:51;20.98;;20.40;;;;;;;
62702;SPS30;66022;50.448;18.122;2023-03-05T07:27:05;25.11;;23.06;;;;;;;
62702;SPS30;66022;50.448;18.122;2023-03-05T07:31:19;25.11;;23.06;;;;;;;
62702;SPS30;66022;50.448;18.122;2023-03-05T07:35:33;25.11;;23.06;;;;;;;
62702;SPS30;66022;50.448;18.122;2023-03-05T07:39:47;25.41;;23.43;;;;;;;
62702;SPS30;66022;50.448;18.122;2023-03-05T07:44:01;25.41;;23.43;;;;;;;
62702;SPS30;66022;50.448;18.122;2023-03-05T07:48:15;34.81;;29.76;;;;;;;
62702;SPS30;66022;50.448;18.122;2023-03-05T07:52:29;34.81;;29.76;;;;;;;
62702;SPS30;66022;50.448;18.122;2023-03-05T07:56:43;35.39;;30.90;;;;;;;
62702;SPS30;66022;50.448;18.122;2023-03-05T08:00:57;35.39;;30.90;;;;;;;
62702;SPS30;66022;50.448;18.122;2023-03-05T08:05:11;35.39;;30.90;;;;;;;
62702;SPS30;66022;50.448;18.122;2023-03-05T08:09:26;31.63;;29.37;;;;;;;
62702;SPS30;66022;50.448;18.122;2023-03-05T08:13:39;31.63;;29.37;;;;;;;
62702;SPS30;66022;50.448;18.122;2023-03-05T08:22:09;36.03;;32.38;;;;;;;
62702;SPS30;66022;50.448;18.122;2023-03-05T08:26:25;36.03;;32.38;;;;;;;
62702;SPS30;66022;50.448;18.122;2023-03-05T08:30:35;33.33;;29.72;;;;;;;
62702;SPS30;66022;50.448;18.122;2023-03-05T08:34:49;33.33;;29.72;;;;;;;
62702;SPS30;66022;50.448;18.122;2023-03-05T08:39:03;30.28;;26.83;;;;;;;
62702;SPS30;66022;50.448;18.122;2023-03-05T08:43:17;30.28;;26.83;;;;;;;
62702;SPS30;66022;50.448;18.122;2023-03-05T08:47:31;25.23;;24.12;;;;;;;
62702;SPS30;66022;50.448;18.122;2023-03-05T08:51:45;25.23;;24.12;;;;;;;
62702;SPS30;66022;50.448;18.122;2023-03-05T08:55:59;25.23;;24.12;;;;;;;
62702;SPS30;66022;50.448;18.122;2023-03-05T09:00:13;23.07;;22.58;;;;;;;
62702;SPS30;66022;50.448;18.122;2023-03-05T09:04:27;23.07;;22.58;;;;;;;
62702;SPS30;66022;50.448;18.122;2023-03-05T09:08:41;21.13;;20.28;;;;;;;
62702;SPS30;66022;50.448;18.122;2023-03-05T09:12:55;21.13;;20.28;;;;;;;
62702;SPS30;66022;50.448;18.122;2023-03-05T09:17:09;26.13;;23.36;;;;;;;
62702;SPS30;66022;50.448;18.122;2023-03-05T09:21:23;26.13;;23.36;;;;;;;
62702;SPS30;66022;50.448;18.122;2023-03-05T09:25:38;26.13;;23.36;;;;;;;
62702;SPS30;66022;50.448;18.122;2023-03-05T09:29:51;16.14;;15.83;;;;;;;
62702;SPS30;66022;50.448;18.122;2023-03-05T09:34:05;16.14;;15.83;;;;;;;
62702;SPS30;66022;50.448;18.122;2023-03-05T09:38:19;14.09;;13.54;;;;;;;
62702;SPS30;66022;50.448;18.122;2023-03-05T09:42:41;14.09;;13.54;;;;;;;
62702;SPS30;66022;50.448;18.122;2023-03-05T09:46:51;13.54;;12.48;;;;;;;
62702;SPS30;66022;50.448;18.122;2023-03-05T09:51:02;13.54;;12.48;;;;;;;
62702;SPS30;66022;50.448;18.122;2023-03-05T09:55:25;13.54;;12.48;;;;;;;
62702;SPS30;66022;50.448;18.122;2023-03-05T09:59:31;13.24;;12.03;;;;;;;
62702;SPS30;66022;50.448;18.122;2023-03-05T10:07:58;9.25;;8.52;;;;;;;
62702;SPS30;66022;50.448;18.122;2023-03-05T10:46:03;4.98;;4.52;;;;;;;
62702;SPS30;66022;50.448;18.122;2023-03-05T10:54:32;3.94;;3.94;;;;;;;
62702;SPS30;66022;50.448;18.122;2023-03-05T10:58:46;3.89;;3.89;;;;;;;
62702;SPS30;66022;50.448;18.122;2023-03-05T11:03:01;3.89;;3.89;;;;;;;
62702;SPS30;66022;50.448;18.122;2023-03-05T11:11:28;6.18;;5.63;;;;;;;
62702;SPS30;66022;50.448;18.122;2023-03-05T11:15:42;6.18;;5.63;;;;;;;
62702;SPS30;66022;50.448;18.122;2023-03-05T11:19:56;8.03;;7.49;;;;;;;
62702;SPS30;66022;50.448;18.122;2023-03-05T11:24:14;8.03;;7.49;;;;;;;
62702;SPS30;66022;50.448;18.122;2023-03-05T11:28:25;8.92;;8.18;;;;;;;
62702;SPS30;66022;50.448;18.122;2023-03-05T11:32:38;8.92;;8.18;;;;;;;
62702;SPS30;66022;50.448;18.122;2023-03-05T11:41:06;6.59;;6.59;;;;;;;
62702;SPS30;66022;50.448;18.122;2023-03-05T11:45:20;6.59;;6.59;;;;;;;
62702;SPS30;66022;50.448;18.122;2023-03-05T11:49:34;6.07;;5.43;;;;;;;
62702;SPS30;66022;50.448;18.122;2023-03-05T12:57:18;6.21;;5.39;;;;;;;
62702;SPS30;66022;50.448;18.122;2023-03-05T13:05:52;6.21;;5.39;;;;;;;
62702;SPS30;66022;50.448;18.122;2023-03-05T13:09:59;6.27;;5.77;;;;;;;
62702;SPS30;66022;50.448;18.122;2023-03-05T13:18:31;5.76;;5.43;;;;;;;
62702;SPS30;66022;50.448;18.122;2023-03-05T13:22:42;5.76;;5.43;;;;;;;
62702;SPS30;66022;50.448;18.122;2023-03-05T13:26:56;6.17;;5.58;;;;;;;
62702;SPS30;66022;50.448;18.122;2023-03-05T13:31:14;6.17;;5.58;;;;;;;
62702;SPS30;66022;50.448;18.122;2023-03-05T13:35:24;6.17;;5.58;;;;;;;
62702;SPS30;66022;50.448;18.122;2023-03-05T13:39:39;6.73;;5.60;;;;;;;
62702;SPS30;66022;50.448;18.122;2023-03-05T13:43:58;6.73;;5.60;;;;;;;
62702;SPS30;66022;50.448;18.122;2023-03-05T13:48:06;5.36;;5.36;;;;;;;
62702;SPS30;66022;50.448;18.122;2023-03-05T13:52:26;5.36;;5.36;;;;;;;
62702;SPS30;66022;50.448;18.122;2023-03-05T13:56:34;5.91;;5.61;;;;;;;
62702;SPS30;66022;50.448;18.122;2023-03-05T14:00:48;5.91;;5.61;;;;;;;
62702;SPS30;66022;50.448;18.122;2023-03-05T14:05:02;5.91;;5.61;;;;;;;
62702;SPS30;66022;50.448;18.122;2023-03-05T14:13:30;5.69;;5.25;;;;;;;
62702;SPS30;66022;50.448;18.122;2023-03-05T14:17:44;5.02;;4.85;;;;;;;
62702;SPS30;66022;50.448;18.122;2023-03-05T14:21:58;5.02;;4.85;;;;;;;
62702;SPS30;66022;50.448;18.122;2023-03-05T14:30:26;5.08;;4.73;;;;;;;
62702;SPS30;66022;50.448;18.122;2023-03-05T14:34:40;5.08;;4.73;;;;;;;
62702;SPS30;66022;50.448;18.122;2023-03-05T14:38:54;6.70;;6.45;;;;;;;
62702;SPS30;66022;50.448;18.122;2023-03-05T14:43:08;6.70;;6.45;;;;;;;
62702;SPS30;66022;50.448;18.122;2023-03-05T14:47:22;5.51;;5.42;;;;;;;
62702;SPS30;66022;50.448;18.122;2023-03-05T14:51:39;5.51;;5.42;;;;;;;
62702;SPS30;66022;50.448;18.122;2023-03-05T14:55:51;5.51;;5.42;;;;;;;
62702;SPS30;66022;50.448;18.122;2023-03-05T15:00:05;6.72;;6.14;;;;;;;
62702;SPS30;66022;50.448;18.122;2023-03-05T15:04:18;6.72;;6.14;;;;;;;
62702;SPS30;66022;50.448;18.122;2023-03-05T15:08:32;6.00;;5.46;;;;;;;
62702;SPS30;66022;50.448;18.122;2023-03-05T15:12:46;6.00;;5.46;;;;;;;
62702;SPS30;66022;50.448;18.122;2023-03-05T15:17:00;4.25;;4.25;;;;;;;
62702;SPS30;66022;50.448;18.122;2023-03-05T15:21:14;4.25;;4.25;;;;;;;
62702;SPS30;66022;50.448;18.122;2023-03-05T15:25:28;4.25;;4.25;;;;;;;
62702;SPS30;66022;50.448;18.122;2023-03-05T15:29:42;4.62;;4.13;;;;;;;
62702;SPS30;66022;50.448;18.122;2023-03-05T15:33:56;4.62;;4.13;;;;;;;
62702;SPS30;66022;50.448;18.122;2023-03-05T15:38:10;3.76;;3.76;;;;;;;
62702;SPS30;66022;50.448;18.122;2023-03-05T15:42:24;3.76;;3.76;;;;;;;
62702;SPS30;66022;50.448;18.122;2023-03-05T15:46:38;4.33;;4.33;;;;;;;
62702;SPS30;66022;50.448;18.122;2023-03-05T15:50:52;4.33;;4.33;;;;;;;
62702;SPS30;66022;50.448;18.122;2023-03-05T15:55:06;4.33;;4.33;;;;;;;
62702;SPS30;66022;50.448;18.122;2023-03-05T15:59:20;5.68;;5.48;;;;;;;
62702;SPS30;66022;50.448;18.122;2023-03-05T16:03:34;5.68;;5.48;;;;;;;
62702;SPS30;66022;50.448;18.122;2023-03-05T16:07:48;27.44;;25.00;;;;;;;
62702;SPS30;66022;50.448;18.122;2023-03-05T16:12:03;27.44;;25.00;;;;;;;
62702;SPS30;66022;50.448;18.122;2023-03-05T16:16:16;27.44;;25.00;;;;;;;
62702;SPS30;66022;50.448;18.122;2023-03-05T16:20:33;34.79;;32.11;;;;;;;
62702;SPS30;66022;50.448;18.122;2023-03-05T16:24:44;34.79;;32.11;;;;;;;
62702;SPS30;66022;50.448;18.122;2023-03-05T16:28:58;21.78;;20.14;;;;;;;
62702;SPS30;66022;50.448;18.122;2023-03-05T16:33:12;21.78;;20.14;;;;;;;
62702;SPS30;66022;50.448;18.122;2023-03-05T16:37:26;15.52;;14.94;;;;;;;
62702;SPS30;66022;50.448;18.122;2023-03-05T16:41:40;15.52;;14.94;;;;;;;
62702;SPS30;66022;50.448;18.122;2023-03-05T16:45:54;15.52;;14.94;;;;;;;
62702;SPS30;66022;50.448;18.122;2023-03-05T16:50:09;13.58;;13.58;;;;;;;
62702;SPS30;66022;50.448;18.122;2023-03-05T16:54:22;13.58;;13.58;;;;;;;
62702;SPS30;66022;50.448;18.122;2023-03-05T16:58:37;19.59;;18.05;;;;;;;
62702;SPS30;66022;50.448;18.122;2023-03-05T17:02:50;19.59;;18.05;;;;;;;
62702;SPS30;66022;50.448;18.122;2023-03-05T17:07:04;22.09;;22.09;;;;;;;
62702;SPS30;66022;50.448;18.122;2023-03-05T17:11:18;22.09;;22.09;;;;;;;
62702;SPS30;66022;50.448;18.122;2023-03-05T17:15:35;22.09;;22.09;;;;;;;
62702;SPS30;66022;50.448;18.122;2023-03-05T17:19:48;18.22;;17.46;;;;;;;
62702;SPS30;66022;50.448;18.122;2023-03-05T17:24:00;18.22;;17.46;;;;;;;
62702;SPS30;66022;50.448;18.122;2023-03-05T17:28:15;12.86;;12.64;;;;;;;
62702;SPS30;66022;50.448;18.122;2023-03-05T17:32:28;12.86;;12.64;;;;;;;
62702;SPS30;66022;50.448;18.122;2023-03-05T17:36:42;14.47;;13.71;;;;;;;
62702;SPS30;66022;50.448;18.122;2023-03-05T17:40:56;14.47;;13.71;;;;;;;
62702;SPS30;66022;50.448;18.122;2023-03-05T17:45:10;14.47;;13.71;;;;;;;
62702;SPS30;66022;50.448;18.122;2023-03-05T17:49:24;16.33;;14.33;;;;;;;
62702;SPS30;66022;50.448;18.122;2023-03-05T17:53:38;16.33;;14.33;;;;;;;
62702;SPS30;66022;50.448;18.122;2023-03-05T17:57:52;13.69;;13.10;;;;;;;
62702;SPS30;66022;50.448;18.122;2023-03-05T18:02:06;13.69;;13.10;;;;;;;
62702;SPS30;66022;50.448;18.122;2023-03-05T18:06:20;13.69;;13.10;;;;;;;
62702;SPS30;66022;50.448;18.122;2023-03-05T18:10:34;15.57;;13.83;;;;;;;
62702;SPS30;66022;50.448;18.122;2023-03-05T18:14:48;15.57;;13.83;;;;;;;
62702;SPS30;66022;50.448;18.122;2023-03-05T18:19:02;13.68;;13.41;;;;;;;
62702;SPS30;66022;50.448;18.122;2023-03-05T18:23:16;13.68;;13.41;;;;;;;
62702;SPS30;66022;50.448;18.122;2023-03-05T18:27:30;13.46;;12.84;;;;;;;
62702;SPS30;66022;50.448;18.122;2023-03-05T18:31:44;13.46;;12.84;;;;;;;
62702;SPS30;66022;50.448;18.122;2023-03-05T18:35:58;13.46;;12.84;;;;;;;
62702;SPS30;66022;50.448;18.122;2023-03-05T18:40:13;15.62;;15.35;;;;;;;
62702;SPS30;66022;50.448;18.122;2023-03-05T18:44:26;15.62;;15.35;;;;;;;
62702;SPS30;66022;50.448;18.122;2023-03-05T18:48:40;257.46;;188.56;;;;;;;
62702;SPS30;66022;50.448;18.122;2023-03-05T18:52:54;257.46;;188.56;;;;;;;
62702;SPS30;66022;50.448;18.122;2023-03-05T18:57:08;56.40;;44.83;;;;;;;
62702;SPS30;66022;50.448;18.122;2023-03-05T19:01:22;56.40;;44.83;;;;;;;
62702;SPS30;66022;50.448;18.122;2023-03-05T19:05:36;56.40;;44.83;;;;;;;
62702;SPS30;66022;50.448;18.122;2023-03-05T19:09:50;17.62;;16.38;;;;;;;
62702;SPS30;66022;50.448;18.122;2023-03-05T19:14:04;17.62;;16.38;;;;;;;
62702;SPS30;66022;50.448;18.122;2023-03-05T19:18:20;17.54;;17.23;;;;;;;
62702;SPS30;66022;50.448;18.122;2023-03-05T19:22:32;17.54;;17.23;;;;;;;
62702;SPS30;66022;50.448;18.122;2023-03-05T19:26:46;16.61;;16.61;;;;;;;
62702;SPS30;66022;50.448;18.122;2023-03-05T19:31:00;16.61;;16.61;;;;;;;
62702;SPS30;66022;50.448;18.122;2023-03-05T19:35:14;16.61;;16.61;;;;;;;
62702;SPS30;66022;50.448;18.122;2023-03-05T19:39:29;22.02;;20.26;;;;;;;
62702;SPS30;66022;50.448;18.122;2023-03-05T19:43:42;22.02;;20.26;;;;;;;
62702;SPS30;66022;50.448;18.122;2023-03-05T19:47:56;50.69;;46.27;;;;;;;
62702;SPS30;66022;50.448;18.122;2023-03-05T19:52:10;50.69;;46.27;;;;;;;
62702;SPS30;66022;50.448;18.122;2023-03-05T19:56:24;50.69;;46.27;;;;;;;
62702;SPS30;66022;50.448;18.122;2023-03-05T20:00:38;44.01;;41.95;;;;;;;
62702;SPS30;66022;50.448;18.122;2023-03-05T20:04:53;44.01;;41.95;;;;;;;
62702;SPS30;66022;50.448;18.122;2023-03-05T20:09:06;59.04;;53.40;;;;;;;
62702;SPS30;66022;50.448;18.122;2023-03-05T20:13:20;59.04;;53.40;;;;;;;
62702;SPS30;66022;50.448;18.122;2023-03-05T20:17:34;58.39;;54.02;;;;;;;
62702;SPS30;66022;50.448;18.122;2023-03-05T20:21:48;58.39;;54.02;;;;;;;
62702;SPS30;66022;50.448;18.122;2023-03-05T20:26:02;58.39;;54.02;;;;;;;
62702;SPS30;66022;50.448;18.122;2023-03-05T20:30:16;130.88;;114.54;;;;;;;
62702;SPS30;66022;50.448;18.122;2023-03-05T20:34:30;130.88;;114.54;;;;;;;
62702;SPS30;66022;50.448;18.122;2023-03-05T20:38:47;29.00;;27.51;;;;;;;
62702;SPS30;66022;50.448;18.122;2023-03-05T20:43:01;29.00;;27.51;;;;;;;
62702;SPS30;66022;50.448;18.122;2023-03-05T20:47:12;20.78;;19.94;;;;;;;
62702;SPS30;66022;50.448;18.122;2023-03-05T20:51:27;20.78;;19.94;;;;;;;
62702;SPS30;66022;50.448;18.122;2023-03-05T20:55:40;20.78;;19.94;;;;;;;
62702;SPS30;66022;50.448;18.122;2023-03-05T20:59:54;22.93;;20.16;;;;;;;
62702;SPS30;66022;50.448;18.122;2023-03-05T21:04:08;22.93;;20.16;;;;;;;
62702;SPS30;66022;50.448;18.122;2023-03-05T21:08:22;12.11;;11.78;;;;;;;
62702;SPS30;66022;50.448;18.122;2023-03-05T21:12:36;12.11;;11.78;;;;;;;
62702;SPS30;66022;50.448;18.122;2023-03-05T21:16:50;19.32;;17.28;;;;;;;
62702;SPS30;66022;50.448;18.122;2023-03-05T21:21:04;19.32;;17.28;;;;;;;
62702;SPS30;66022;50.448;18.122;2023-03-05T21:25:18;19.32;;17.28;;;;;;;
62702;SPS30;66022;50.448;18.122;2023-03-05T21:29:32;18.02;;16.90;;;;;;;
62702;SPS30;66022;50.448;18.122;2023-03-05T21:33:46;18.02;;16.90;;;;;;;
62702;SPS30;66022;50.448;18.122;2023-03-05T21:38:00;16.63;;15.70;;;;;;;
62702;SPS30;66022;50.448;18.122;2023-03-05T21:42:17;16.63;;15.70;;;;;;;
62702;SPS30;66022;50.448;18.122;2023-03-05T21:46:30;16.63;;15.70;;;;;;;
62702;SPS30;66022;50.448;18.122;2023-03-05T21:50:44;16.80;;15.70;;;;;;;
62702;SPS30;66022;50.448;18.122;2023-03-05T21:54:56;16.80;;15.70;;;;;;;
62702;SPS30;66022;50.448;18.122;2023-03-05T21:59:10;16.14;;15.15;;;;;;;
62702;SPS30;66022;50.448;18.122;2023-03-05T22:03:24;16.14;;15.15;;;;;;;
62702;SPS30;66022;50.448;18.122;2023-03-05T22:07:38;15.00;;14.98;;;;;;;
62702;SPS30;66022;50.448;18.122;2023-03-05T22:11:52;15.00;;14.98;;;;;;;
62702;SPS30;66022;50.448;18.122;2023-03-05T22:16:06;15.00;;14.98;;;;;;;
62702;SPS30;66022;50.448;18.122;2023-03-05T22:20:20;19.03;;17.40;;;;;;;
62702;SPS30;66022;50.448;18.122;2023-03-05T22:24:34;19.03;;17.40;;;;;;;
62702;SPS30;66022;50.448;18.122;2023-03-05T22:28:48;69.08;;51.03;;;;;;;
62702;SPS30;66022;50.448;18.122;2023-03-05T22:33:02;69.08;;51.03;;;;;;;
62702;SPS30;66022;50.448;18.122;2023-03-05T22:37:16;68.87;;51.92;;;;;;;
62702;SPS30;66022;50.448;18.122;2023-03-05T22:41:33;68.87;;51.92;;;;;;;
62702;SPS30;66022;50.448;18.122;2023-03-05T22:45:44;68.87;;51.92;;;;;;;
62702;SPS30;66022;50.448;18.122;2023-03-05T22:49:58;28.72;;23.90;;;;;;;
62702;SPS30;66022;50.448;18.122;2023-03-05T22:54:12;28.72;;23.90;;;;;;;
62702;SPS30;66022;50.448;18.122;2023-03-05T22:58:26;22.93;;21.67;;;;;;;
62702;SPS30;66022;50.448;18.122;2023-03-05T23:02:41;22.93;;21.67;;;;;;;
62702;SPS30;66022;50.448;18.122;2023-03-05T23:06:54;22.63;;21.62;;;;;;;
62702;SPS30;66022;50.448;18.122;2023-03-05T23:11:09;22.63;;21.62;;;;;;;
62702;SPS30;66022;50.448;18.122;2023-03-05T23:15:23;22.63;;21.62;;;;;;;
62702;SPS30;66022;50.448;18.122;2023-03-05T23:19:36;27.56;;24.98;;;;;;;
62702;SPS30;66022;50.448;18.122;2023-03-05T23:23:50;27.56;;24.98;;;;;;;
62702;SPS30;66022;50.448;18.122;2023-03-05T23:28:04;24.63;;24.31;;;;;;;
62702;SPS30;66022;50.448;18.122;2023-03-05T23:32:18;24.63;;24.31;;;;;;;
62702;SPS30;66022;50.448;18.122;2023-03-05T23:36:32;24.63;;24.31;;;;;;;
62702;SPS30;66022;50.448;18.122;2023-03-05T23:40:47;53.81;;44.27;;;;;;;
62702;SPS30;66022;50.448;18.122;2023-03-05T23:45:00;53.81;;44.27;;;;;;;
62702;SPS30;66022;50.448;18.122;2023-03-05T23:49:14;38.09;;33.40;;;;;;;
62702;SPS30;66022;50.448;18.122;2023-03-05T23:53:28;38.09;;33.40;;;;;;;
62702;SPS30;66022;50.448;18.122;2023-03-05T23:57:42;42.21;;36.08;;;;;;;
